Aviation Digital Data Service (ADDS)

Output produced by TAFs form (0902 UTC 20 October 2017)
found at http://www.aviationweather.gov/adds/tafs/
 
KPNS 200853Z AUTO 05005KT 10SM CLR 19/14 A3015 RMK AO2 SLP211 T01940144 58004
KPNS 200522Z 2006/2106 04004KT P6SM SCT250 
     FM201500 08007KT P6SM SKC